sensor_id;sensor_type;location;lat;lon;timestamp;temperature;humidity
22738;DHT22;11536;50.860;4.286;2023-04-25T00:02:10;10.30;99.90
22738;DHT22;11536;50.860;4.286;2023-04-25T00:04:35;10.30;99.90
22738;DHT22;11536;50.860;4.286;2023-04-25T00:07:03;10.30;99.90
22738;DHT22;11536;50.860;4.286;2023-04-25T00:09:29;10.30;99.90
22738;DHT22;11536;50.860;4.286;2023-04-25T00:11:55;10.30;99.90
22738;DHT22;11536;50.860;4.286;2023-04-25T00:14:21;10.30;99.90
22738;DHT22;11536;50.860;4.286;2023-04-25T00:16:47;10.30;99.90
22738;DHT22;11536;50.860;4.286;2023-04-25T00:19:13;10.30;99.90
22738;DHT22;11536;50.860;4.286;2023-04-25T00:21:39;10.30;99.90
22738;DHT22;11536;50.860;4.286;2023-04-25T00:24:06;10.30;99.90
22738;DHT22;11536;50.860;4.286;2023-04-25T00:26:34;10.30;99.90
22738;DHT22;11536;50.860;4.286;2023-04-25T00:29:00;10.30;99.90
22738;DHT22;11536;50.860;4.286;2023-04-25T00:31:25;10.30;99.90
22738;DHT22;11536;50.860;4.286;2023-04-25T00:33:51;10.30;99.90
22738;DHT22;11536;50.860;4.286;2023-04-25T00:36:18;10.30;99.90
22738;DHT22;11536;50.860;4.286;2023-04-25T00:38:44;10.30;99.90
22738;DHT22;11536;50.860;4.286;2023-04-25T00:41:10;10.30;99.90
22738;DHT22;11536;50.860;4.286;2023-04-25T00:43:36;10.30;99.90
22738;DHT22;11536;50.860;4.286;2023-04-25T00:46:02;10.30;99.90
22738;DHT22;11536;50.860;4.286;2023-04-25T00:48:28;10.30;99.90
22738;DHT22;11536;50.860;4.286;2023-04-25T00:50:56;10.30;99.90
22738;DHT22;11536;50.860;4.286;2023-04-25T00:53:23;10.30;99.90
22738;DHT22;11536;50.860;4.286;2023-04-25T00:55:50;10.30;99.90
22738;DHT22;11536;50.860;4.286;2023-04-25T00:58:20;10.30;99.90
22738;DHT22;11536;50.860;4.286;2023-04-25T01:00:47;10.30;99.90
22738;DHT22;11536;50.860;4.286;2023-04-25T01:03:17;10.30;99.90
22738;DHT22;11536;50.860;4.286;2023-04-25T01:05:45;10.30;99.90
22738;DHT22;11536;50.860;4.286;2023-04-25T01:08:12;10.20;99.90
22738;DHT22;11536;50.860;4.286;2023-04-25T01:10:37;10.20;99.90
22738;DHT22;11536;50.860;4.286;2023-04-25T01:13:03;10.20;99.90
22738;DHT22;11536;50.860;4.286;2023-04-25T01:15:29;10.20;99.90
22738;DHT22;11536;50.860;4.286;2023-04-25T01:17:56;10.10;99.90
22738;DHT22;11536;50.860;4.286;2023-04-25T01:20:23;10.10;99.90
22738;DHT22;11536;50.860;4.286;2023-04-25T01:22:50;10.20;99.90
22738;DHT22;11536;50.860;4.286;2023-04-25T01:25:17;10.20;99.90
22738;DHT22;11536;50.860;4.286;2023-04-25T01:27:42;10.10;99.90
22738;DHT22;11536;50.860;4.286;2023-04-25T01:30:09;10.20;99.90
22738;DHT22;11536;50.860;4.286;2023-04-25T01:32:35;10.10;99.90
22738;DHT22;11536;50.860;4.286;2023-04-25T01:35:09;10.10;99.90
22738;DHT22;11536;50.860;4.286;2023-04-25T01:37:42;10.10;99.90
22738;DHT22;11536;50.860;4.286;2023-04-25T01:40:11;10.10;99.90
22738;DHT22;11536;50.860;4.286;2023-04-25T01:42:41;10.10;99.90
22738;DHT22;11536;50.860;4.286;2023-04-25T01:45:07;10.10;99.90
22738;DHT22;11536;50.860;4.286;2023-04-25T01:47:34;10.10;99.90
22738;DHT22;11536;50.860;4.286;2023-04-25T01:50:06;10.10;99.90
22738;DHT22;11536;50.860;4.286;2023-04-25T01:52:32;10.10;99.90
22738;DHT22;11536;50.860;4.286;2023-04-25T01:54:59;10.00;99.90
22738;DHT22;11536;50.860;4.286;2023-04-25T01:57:25;10.00;99.90
22738;DHT22;11536;50.860;4.286;2023-04-25T01:59:51;9.90;99.90
22738;DHT22;11536;50.860;4.286;2023-04-25T02:02:17;9.90;99.90
22738;DHT22;11536;50.860;4.286;2023-04-25T02:04:42;9.80;99.90
22738;DHT22;11536;50.860;4.286;2023-04-25T02:07:08;9.80;99.90
22738;DHT22;11536;50.860;4.286;2023-04-25T02:09:33;9.80;99.90
22738;DHT22;11536;50.860;4.286;2023-04-25T02:11:59;9.80;99.90
22738;DHT22;11536;50.860;4.286;2023-04-25T02:14:25;9.80;99.90
22738;DHT22;11536;50.860;4.286;2023-04-25T02:16:51;9.70;99.90
22738;DHT22;11536;50.860;4.286;2023-04-25T02:19:17;9.80;99.90
22738;DHT22;11536;50.860;4.286;2023-04-25T02:21:42;9.70;99.90
22738;DHT22;11536;50.860;4.286;2023-04-25T02:24:08;9.70;99.90
22738;DHT22;11536;50.860;4.286;2023-04-25T02:26:34;9.70;99.90
22738;DHT22;11536;50.860;4.286;2023-04-25T02:28:59;9.70;99.90
22738;DHT22;11536;50.860;4.286;2023-04-25T02:31:26;9.70;99.90
22738;DHT22;11536;50.860;4.286;2023-04-25T02:33:52;9.70;99.90
22738;DHT22;11536;50.860;4.286;2023-04-25T02:36:17;9.70;99.90
22738;DHT22;11536;50.860;4.286;2023-04-25T02:38:43;9.70;99.90
22738;DHT22;11536;50.860;4.286;2023-04-25T02:41:08;9.70;99.90
22738;DHT22;11536;50.860;4.286;2023-04-25T02:43:34;9.70;99.90
22738;DHT22;11536;50.860;4.286;2023-04-25T02:46:00;9.70;99.90
22738;DHT22;11536;50.860;4.286;2023-04-25T02:48:25;9.70;99.90
22738;DHT22;11536;50.860;4.286;2023-04-25T02:50:51;9.70;99.90
22738;DHT22;11536;50.860;4.286;2023-04-25T02:53:17;9.70;99.90
22738;DHT22;11536;50.860;4.286;2023-04-25T02:55:42;9.70;99.90
22738;DHT22;11536;50.860;4.286;2023-04-25T02:58:08;9.70;99.90
22738;DHT22;11536;50.860;4.286;2023-04-25T03:00:33;9.70;99.90
22738;DHT22;11536;50.860;4.286;2023-04-25T03:02:59;9.70;99.90
22738;DHT22;11536;50.860;4.286;2023-04-25T03:05:25;9.70;99.90
22738;DHT22;11536;50.860;4.286;2023-04-25T03:07:50;9.70;99.90
22738;DHT22;11536;50.860;4.286;2023-04-25T03:10:16;9.70;99.90
22738;DHT22;11536;50.860;4.286;2023-04-25T03:12:42;9.70;99.90
22738;DHT22;11536;50.860;4.286;2023-04-25T03:15:08;9.70;99.90
22738;DHT22;11536;50.860;4.286;2023-04-25T03:17:33;9.70;99.90
22738;DHT22;11536;50.860;4.286;2023-04-25T03:19:59;9.60;99.90
22738;DHT22;11536;50.860;4.286;2023-04-25T03:22:25;9.60;99.90
22738;DHT22;11536;50.860;4.286;2023-04-25T03:24:50;9.60;99.90
22738;DHT22;11536;50.860;4.286;2023-04-25T03:27:17;9.50;99.90
22738;DHT22;11536;50.860;4.286;2023-04-25T03:29:42;9.50;99.90
22738;DHT22;11536;50.860;4.286;2023-04-25T03:32:08;9.40;99.90
22738;DHT22;11536;50.860;4.286;2023-04-25T03:34:34;9.40;99.90
22738;DHT22;11536;50.860;4.286;2023-04-25T03:37:00;9.40;99.90
22738;DHT22;11536;50.860;4.286;2023-04-25T03:39:26;9.30;99.90
22738;DHT22;11536;50.860;4.286;2023-04-25T03:41:51;9.30;99.90
22738;DHT22;11536;50.860;4.286;2023-04-25T03:44:17;9.30;99.90
22738;DHT22;11536;50.860;4.286;2023-04-25T03:46:43;9.30;99.90
22738;DHT22;11536;50.860;4.286;2023-04-25T03:49:09;9.30;99.90
22738;DHT22;11536;50.860;4.286;2023-04-25T03:51:34;9.30;99.90
22738;DHT22;11536;50.860;4.286;2023-04-25T03:54:00;9.30;99.90
22738;DHT22;11536;50.860;4.286;2023-04-25T03:56:25;9.30;99.90
22738;DHT22;11536;50.860;4.286;2023-04-25T03:58:51;9.30;99.90
22738;DHT22;11536;50.860;4.286;2023-04-25T04:01:17;9.20;99.90
22738;DHT22;11536;50.860;4.286;2023-04-25T04:03:42;9.20;99.90
22738;DHT22;11536;50.860;4.286;2023-04-25T04:06:08;9.20;99.90
22738;DHT22;11536;50.860;4.286;2023-04-25T04:08:34;9.20;99.90
22738;DHT22;11536;50.860;4.286;2023-04-25T04:11:00;9.10;99.90
22738;DHT22;11536;50.860;4.286;2023-04-25T04:13:27;9.10;99.90
22738;DHT22;11536;50.860;4.286;2023-04-25T04:15:53;9.10;99.90
22738;DHT22;11536;50.860;4.286;2023-04-25T04:18:18;9.10;99.90
22738;DHT22;11536;50.860;4.286;2023-04-25T04:20:44;9.20;99.90
22738;DHT22;11536;50.860;4.286;2023-04-25T04:23:10;9.20;99.90
22738;DHT22;11536;50.860;4.286;2023-04-25T04:25:36;9.20;99.90
22738;DHT22;11536;50.860;4.286;2023-04-25T04:28:02;9.20;99.90
22738;DHT22;11536;50.860;4.286;2023-04-25T04:30:28;9.20;99.90
22738;DHT22;11536;50.860;4.286;2023-04-25T04:32:57;9.30;99.90
22738;DHT22;11536;50.860;4.286;2023-04-25T04:35:23;9.30;99.90
22738;DHT22;11536;50.860;4.286;2023-04-25T04:37:49;9.30;99.90
22738;DHT22;11536;50.860;4.286;2023-04-25T04:40:15;9.20;99.90
22738;DHT22;11536;50.860;4.286;2023-04-25T04:42:44;9.20;99.90
22738;DHT22;11536;50.860;4.286;2023-04-25T04:45:14;9.20;99.90
22738;DHT22;11536;50.860;4.286;2023-04-25T04:47:40;9.10;99.90
22738;DHT22;11536;50.860;4.286;2023-04-25T04:50:10;9.10;99.90
22738;DHT22;11536;50.860;4.286;2023-04-25T04:52:36;9.00;99.90
22738;DHT22;11536;50.860;4.286;2023-04-25T04:55:04;9.00;99.90
22738;DHT22;11536;50.860;4.286;2023-04-25T04:57:31;8.90;99.90
22738;DHT22;11536;50.860;4.286;2023-04-25T04:59:58;8.90;99.90
22738;DHT22;11536;50.860;4.286;2023-04-25T05:02:24;8.90;99.90
22738;DHT22;11536;50.860;4.286;2023-04-25T05:04:51;8.90;99.90
22738;DHT22;11536;50.860;4.286;2023-04-25T05:07:17;8.80;99.90
22738;DHT22;11536;50.860;4.286;2023-04-25T05:09:43;8.80;99.90
22738;DHT22;11536;50.860;4.286;2023-04-25T05:12:09;8.80;99.90
22738;DHT22;11536;50.860;4.286;2023-04-25T05:14:34;8.80;99.90
22738;DHT22;11536;50.860;4.286;2023-04-25T05:17:00;8.80;99.90
22738;DHT22;11536;50.860;4.286;2023-04-25T05:19:26;8.80;99.90
22738;DHT22;11536;50.860;4.286;2023-04-25T05:21:52;8.80;99.90
22738;DHT22;11536;50.860;4.286;2023-04-25T05:24:17;8.80;99.90
22738;DHT22;11536;50.860;4.286;2023-04-25T05:26:43;8.80;99.90
22738;DHT22;11536;50.860;4.286;2023-04-25T05:29:09;8.80;99.90
22738;DHT22;11536;50.860;4.286;2023-04-25T05:31:35;8.80;99.90
22738;DHT22;11536;50.860;4.286;2023-04-25T05:34:01;8.90;99.90
22738;DHT22;11536;50.860;4.286;2023-04-25T05:36:27;8.90;99.90
22738;DHT22;11536;50.860;4.286;2023-04-25T05:38:53;8.90;99.90
22738;DHT22;11536;50.860;4.286;2023-04-25T05:41:19;8.90;99.90
22738;DHT22;11536;50.860;4.286;2023-04-25T05:43:45;8.90;99.90
22738;DHT22;11536;50.860;4.286;2023-04-25T05:46:15;8.90;99.90
22738;DHT22;11536;50.860;4.286;2023-04-25T05:48:42;8.90;99.90
22738;DHT22;11536;50.860;4.286;2023-04-25T05:51:08;8.90;99.90
22738;DHT22;11536;50.860;4.286;2023-04-25T05:53:34;9.00;99.90
22738;DHT22;11536;50.860;4.286;2023-04-25T05:56:01;8.90;99.90
22738;DHT22;11536;50.860;4.286;2023-04-25T05:58:26;8.90;99.90
22738;DHT22;11536;50.860;4.286;2023-04-25T06:00:52;8.90;99.90
22738;DHT22;11536;50.860;4.286;2023-04-25T06:03:18;8.80;99.90
22738;DHT22;11536;50.860;4.286;2023-04-25T06:05:43;8.80;99.90
22738;DHT22;11536;50.860;4.286;2023-04-25T06:08:09;8.80;99.90
22738;DHT22;11536;50.860;4.286;2023-04-25T06:10:38;8.80;99.90
22738;DHT22;11536;50.860;4.286;2023-04-25T06:13:04;8.80;99.90
22738;DHT22;11536;50.860;4.286;2023-04-25T06:15:30;8.80;99.90
22738;DHT22;11536;50.860;4.286;2023-04-25T06:17:57;8.80;99.90
22738;DHT22;11536;50.860;4.286;2023-04-25T06:20:23;8.80;99.90
22738;DHT22;11536;50.860;4.286;2023-04-25T06:22:50;8.90;99.90
22738;DHT22;11536;50.860;4.286;2023-04-25T06:25:17;8.90;99.90
22738;DHT22;11536;50.860;4.286;2023-04-25T06:27:43;8.90;99.90
22738;DHT22;11536;50.860;4.286;2023-04-25T06:30:09;8.90;99.90
22738;DHT22;11536;50.860;4.286;2023-04-25T06:32:35;9.00;99.90
22738;DHT22;11536;50.860;4.286;2023-04-25T06:35:01;9.00;99.90
22738;DHT22;11536;50.860;4.286;2023-04-25T06:37:26;9.00;99.90
22738;DHT22;11536;50.860;4.286;2023-04-25T06:39:52;8.90;99.90
22738;DHT22;11536;50.860;4.286;2023-04-25T06:42:18;8.90;99.90
22738;DHT22;11536;50.860;4.286;2023-04-25T06:44:43;8.90;99.90
22738;DHT22;11536;50.860;4.286;2023-04-25T06:47:09;8.90;99.90
22738;DHT22;11536;50.860;4.286;2023-04-25T06:49:35;8.90;99.90
22738;DHT22;11536;50.860;4.286;2023-04-25T06:52:00;8.90;99.90
22738;DHT22;11536;50.860;4.286;2023-04-25T06:54:26;9.00;99.90
22738;DHT22;11536;50.860;4.286;2023-04-25T06:56:55;9.00;99.90
22738;DHT22;11536;50.860;4.286;2023-04-25T06:59:21;9.00;99.90
22738;DHT22;11536;50.860;4.286;2023-04-25T07:01:46;9.00;99.90
22738;DHT22;11536;50.860;4.286;2023-04-25T07:04:12;9.10;99.90
22738;DHT22;11536;50.860;4.286;2023-04-25T07:06:37;9.10;99.90
22738;DHT22;11536;50.860;4.286;2023-04-25T07:09:08;9.10;99.90
22738;DHT22;11536;50.860;4.286;2023-04-25T07:11:35;9.10;99.90
22738;DHT22;11536;50.860;4.286;2023-04-25T07:14:01;9.10;99.90
22738;DHT22;11536;50.860;4.286;2023-04-25T07:16:27;9.10;99.90
22738;DHT22;11536;50.860;4.286;2023-04-25T07:18:53;9.10;99.90
22738;DHT22;11536;50.860;4.286;2023-04-25T07:21:19;9.20;99.90
22738;DHT22;11536;50.860;4.286;2023-04-25T07:23:44;9.20;99.90
22738;DHT22;11536;50.860;4.286;2023-04-25T07:26:10;9.20;99.90
22738;DHT22;11536;50.860;4.286;2023-04-25T07:28:36;9.20;99.90
22738;DHT22;11536;50.860;4.286;2023-04-25T07:31:01;9.20;99.90
22738;DHT22;11536;50.860;4.286;2023-04-25T07:33:28;9.20;99.90
22738;DHT22;11536;50.860;4.286;2023-04-25T07:35:54;9.20;99.90
22738;DHT22;11536;50.860;4.286;2023-04-25T07:38:20;9.20;99.90
22738;DHT22;11536;50.860;4.286;2023-04-25T07:40:46;9.30;99.90
22738;DHT22;11536;50.860;4.286;2023-04-25T07:43:12;9.30;99.90
22738;DHT22;11536;50.860;4.286;2023-04-25T07:45:40;9.30;99.90
22738;DHT22;11536;50.860;4.286;2023-04-25T07:48:05;9.30;99.90
22738;DHT22;11536;50.860;4.286;2023-04-25T07:50:31;9.30;99.90
22738;DHT22;11536;50.860;4.286;2023-04-25T07:52:57;9.30;99.90
22738;DHT22;11536;50.860;4.286;2023-04-25T07:55:22;9.30;99.90
22738;DHT22;11536;50.860;4.286;2023-04-25T07:57:48;9.30;99.90
22738;DHT22;11536;50.860;4.286;2023-04-25T08:00:14;9.30;99.90
22738;DHT22;11536;50.860;4.286;2023-04-25T08:02:40;9.40;99.90
22738;DHT22;11536;50.860;4.286;2023-04-25T08:05:06;9.40;99.90
22738;DHT22;11536;50.860;4.286;2023-04-25T08:07:33;9.40;99.90
22738;DHT22;11536;50.860;4.286;2023-04-25T08:10:00;9.40;99.90
22738;DHT22;11536;50.860;4.286;2023-04-25T08:12:25;9.50;99.90
22738;DHT22;11536;50.860;4.286;2023-04-25T08:14:51;9.50;99.90
22738;DHT22;11536;50.860;4.286;2023-04-25T08:17:17;9.50;99.90
22738;DHT22;11536;50.860;4.286;2023-04-25T08:19:42;9.50;99.90
22738;DHT22;11536;50.860;4.286;2023-04-25T08:22:08;9.50;99.90
22738;DHT22;11536;50.860;4.286;2023-04-25T08:24:34;9.60;99.90
22738;DHT22;11536;50.860;4.286;2023-04-25T08:26:59;9.60;99.90
22738;DHT22;11536;50.860;4.286;2023-04-25T08:29:26;9.60;99.90
22738;DHT22;11536;50.860;4.286;2023-04-25T08:31:51;9.70;99.90
22738;DHT22;11536;50.860;4.286;2023-04-25T08:34:18;9.70;99.90
22738;DHT22;11536;50.860;4.286;2023-04-25T08:36:45;9.80;99.90
22738;DHT22;11536;50.860;4.286;2023-04-25T08:39:11;9.80;99.90
22738;DHT22;11536;50.860;4.286;2023-04-25T08:41:37;9.80;99.90
22738;DHT22;11536;50.860;4.286;2023-04-25T08:44:03;9.80;99.90
22738;DHT22;11536;50.860;4.286;2023-04-25T08:46:30;9.90;99.90
22738;DHT22;11536;50.860;4.286;2023-04-25T08:49:00;9.90;99.90
22738;DHT22;11536;50.860;4.286;2023-04-25T08:51:27;10.00;99.90
22738;DHT22;11536;50.860;4.286;2023-04-25T08:53:56;10.10;99.90
22738;DHT22;11536;50.860;4.286;2023-04-25T08:56:25;10.10;99.90
22738;DHT22;11536;50.860;4.286;2023-04-25T08:58:51;10.10;99.90
22738;DHT22;11536;50.860;4.286;2023-04-25T09:01:18;10.00;99.90
22738;DHT22;11536;50.860;4.286;2023-04-25T09:03:44;10.00;99.90
22738;DHT22;11536;50.860;4.286;2023-04-25T09:06:13;10.00;99.90
22738;DHT22;11536;50.860;4.286;2023-04-25T09:08:39;10.00;99.90
22738;DHT22;11536;50.860;4.286;2023-04-25T09:11:06;10.00;99.90
22738;DHT22;11536;50.860;4.286;2023-04-25T09:13:32;10.00;99.90
22738;DHT22;11536;50.860;4.286;2023-04-25T09:15:59;10.00;99.90
22738;DHT22;11536;50.860;4.286;2023-04-25T09:18:27;10.00;99.90
22738;DHT22;11536;50.860;4.286;2023-04-25T09:20:54;9.90;99.90
22738;DHT22;11536;50.860;4.286;2023-04-25T09:23:21;9.90;99.90
22738;DHT22;11536;50.860;4.286;2023-04-25T09:25:56;9.90;99.90
22738;DHT22;11536;50.860;4.286;2023-04-25T09:28:26;10.00;99.90
22738;DHT22;11536;50.860;4.286;2023-04-25T09:30:58;10.00;99.90
22738;DHT22;11536;50.860;4.286;2023-04-25T09:33:29;10.00;99.90
22738;DHT22;11536;50.860;4.286;2023-04-25T09:36:08;10.00;99.90
22738;DHT22;11536;50.860;4.286;2023-04-25T09:38:44;10.00;99.90
22738;DHT22;11536;50.860;4.286;2023-04-25T09:41:10;9.90;99.90
22738;DHT22;11536;50.860;4.286;2023-04-25T09:43:37;9.90;99.90
22738;DHT22;11536;50.860;4.286;2023-04-25T09:46:08;9.90;99.90
22738;DHT22;11536;50.860;4.286;2023-04-25T09:48:34;10.00;99.90
22738;DHT22;11536;50.860;4.286;2023-04-25T09:51:09;10.10;99.90
22738;DHT22;11536;50.860;4.286;2023-04-25T09:53:40;10.10;99.90
22738;DHT22;11536;50.860;4.286;2023-04-25T09:56:07;10.10;99.90
22738;DHT22;11536;50.860;4.286;2023-04-25T09:58:34;10.10;99.90
22738;DHT22;11536;50.860;4.286;2023-04-25T10:01:03;10.20;99.90
22738;DHT22;11536;50.860;4.286;2023-04-25T10:03:41;10.20;99.90
22738;DHT22;11536;50.860;4.286;2023-04-25T10:06:11;10.30;99.90
22738;DHT22;11536;50.860;4.286;2023-04-25T10:08:38;10.30;99.90
22738;DHT22;11536;50.860;4.286;2023-04-25T10:11:06;10.30;99.90
22738;DHT22;11536;50.860;4.286;2023-04-25T10:13:33;10.40;99.90
22738;DHT22;11536;50.860;4.286;2023-04-25T10:16:04;10.30;99.90
22738;DHT22;11536;50.860;4.286;2023-04-25T10:18:31;10.40;99.90
22738;DHT22;11536;50.860;4.286;2023-04-25T10:20:59;10.40;99.90
22738;DHT22;11536;50.860;4.286;2023-04-25T10:23:25;10.50;99.90
22738;DHT22;11536;50.860;4.286;2023-04-25T10:25:52;10.60;99.90
22738;DHT22;11536;50.860;4.286;2023-04-25T10:28:19;10.60;99.90
22738;DHT22;11536;50.860;4.286;2023-04-25T10:31:11;10.60;99.90
22738;DHT22;11536;50.860;4.286;2023-04-25T10:33:43;10.70;99.90
22738;DHT22;11536;50.860;4.286;2023-04-25T10:36:12;10.70;99.90
22738;DHT22;11536;50.860;4.286;2023-04-25T10:38:38;10.80;99.90
22738;DHT22;11536;50.860;4.286;2023-04-25T10:41:06;10.80;99.90
22738;DHT22;11536;50.860;4.286;2023-04-25T10:43:41;10.80;99.90
22738;DHT22;11536;50.860;4.286;2023-04-25T10:48:52;10.70;99.90
22738;DHT22;11536;50.860;4.286;2023-04-25T10:51:29;10.70;99.90
22738;DHT22;11536;50.860;4.286;2023-04-25T10:54:07;10.70;99.90
22738;DHT22;11536;50.860;4.286;2023-04-25T11:01:41;10.40;99.90
22738;DHT22;11536;50.860;4.286;2023-04-25T11:04:31;10.40;99.90
22738;DHT22;11536;50.860;4.286;2023-04-25T11:07:09;10.30;99.90
22738;DHT22;11536;50.860;4.286;2023-04-25T11:09:38;10.40;99.90
22738;DHT22;11536;50.860;4.286;2023-04-25T11:12:04;10.40;99.90
22738;DHT22;11536;50.860;4.286;2023-04-25T11:14:30;10.40;99.90
22738;DHT22;11536;50.860;4.286;2023-04-25T11:16:59;10.40;99.90
22738;DHT22;11536;50.860;4.286;2023-04-25T11:19:27;10.40;99.90
22738;DHT22;11536;50.860;4.286;2023-04-25T11:22:00;10.40;99.90
22738;DHT22;11536;50.860;4.286;2023-04-25T11:24:31;10.40;99.90
22738;DHT22;11536;50.860;4.286;2023-04-25T11:27:01;10.40;99.90
22738;DHT22;11536;50.860;4.286;2023-04-25T11:29:28;10.30;99.90
22738;DHT22;11536;50.860;4.286;2023-04-25T11:31:55;10.30;99.90
22738;DHT22;11536;50.860;4.286;2023-04-25T11:34:27;10.40;99.90
22738;DHT22;11536;50.860;4.286;2023-04-25T11:36:56;10.40;99.90
22738;DHT22;11536;50.860;4.286;2023-04-25T11:39:23;10.40;99.90
22738;DHT22;11536;50.860;4.286;2023-04-25T11:41:49;10.50;99.90
22738;DHT22;11536;50.860;4.286;2023-04-25T11:44:16;10.50;99.90
22738;DHT22;11536;50.860;4.286;2023-04-25T11:46:45;10.50;99.90
22738;DHT22;11536;50.860;4.286;2023-04-25T11:49:12;10.60;99.90
22738;DHT22;11536;50.860;4.286;2023-04-25T11:51:41;10.60;99.90
22738;DHT22;11536;50.860;4.286;2023-04-25T11:54:07;10.60;99.90
22738;DHT22;11536;50.860;4.286;2023-04-25T11:56:33;10.60;99.90
22738;DHT22;11536;50.860;4.286;2023-04-25T11:59:04;10.60;99.90
22738;DHT22;11536;50.860;4.286;2023-04-25T12:01:37;10.80;99.90
22738;DHT22;11536;50.860;4.286;2023-04-25T12:04:14;10.90;99.90
22738;DHT22;11536;50.860;4.286;2023-04-25T12:06:42;11.00;99.90
22738;DHT22;11536;50.860;4.286;2023-04-25T12:09:10;11.20;99.90
22738;DHT22;11536;50.860;4.286;2023-04-25T12:12:01;11.40;99.90
22738;DHT22;11536;50.860;4.286;2023-04-25T12:14:35;11.40;99.90
22738;DHT22;11536;50.860;4.286;2023-04-25T12:17:03;11.40;99.90
22738;DHT22;11536;50.860;4.286;2023-04-25T12:19:34;11.50;99.90
22738;DHT22;11536;50.860;4.286;2023-04-25T12:22:01;11.70;99.90
22738;DHT22;11536;50.860;4.286;2023-04-25T12:24:28;11.90;99.90
22738;DHT22;11536;50.860;4.286;2023-04-25T12:27:02;12.10;99.90
22738;DHT22;11536;50.860;4.286;2023-04-25T12:29:29;12.20;99.90
22738;DHT22;11536;50.860;4.286;2023-04-25T12:31:56;12.20;99.90
22738;DHT22;11536;50.860;4.286;2023-04-25T12:34:22;12.30;99.90
22738;DHT22;11536;50.860;4.286;2023-04-25T12:36:49;12.40;99.90
22738;DHT22;11536;50.860;4.286;2023-04-25T12:39:20;12.40;99.90
22738;DHT22;11536;50.860;4.286;2023-04-25T12:41:50;12.40;99.90
22738;DHT22;11536;50.860;4.286;2023-04-25T12:44:17;12.30;99.90
22738;DHT22;11536;50.860;4.286;2023-04-25T12:46:43;12.30;99.90
22738;DHT22;11536;50.860;4.286;2023-04-25T12:49:09;12.20;99.90
22738;DHT22;11536;50.860;4.286;2023-04-25T12:51:35;12.20;99.90
22738;DHT22;11536;50.860;4.286;2023-04-25T12:54:01;12.40;99.90
22738;DHT22;11536;50.860;4.286;2023-04-25T12:56:28;12.50;99.90
22738;DHT22;11536;50.860;4.286;2023-04-25T12:58:54;12.50;99.90
22738;DHT22;11536;50.860;4.286;2023-04-25T13:01:21;12.60;99.90
22738;DHT22;11536;50.860;4.286;2023-04-25T13:03:47;12.60;99.90
22738;DHT22;11536;50.860;4.286;2023-04-25T13:06:14;12.50;99.90
22738;DHT22;11536;50.860;4.286;2023-04-25T13:08:39;12.50;99.90
22738;DHT22;11536;50.860;4.286;2023-04-25T13:11:06;12.50;99.90
22738;DHT22;11536;50.860;4.286;2023-04-25T13:13:32;12.30;99.90
22738;DHT22;11536;50.860;4.286;2023-04-25T13:16:06;12.10;99.90
22738;DHT22;11536;50.860;4.286;2023-04-25T13:18:32;12.00;99.90
22738;DHT22;11536;50.860;4.286;2023-04-25T13:20:59;11.90;99.90
22738;DHT22;11536;50.860;4.286;2023-04-25T13:23:28;12.00;99.90
22738;DHT22;11536;50.860;4.286;2023-04-25T13:25:55;12.30;99.90
22738;DHT22;11536;50.860;4.286;2023-04-25T13:28:23;12.40;99.90
22738;DHT22;11536;50.860;4.286;2023-04-25T13:30:49;12.50;99.90
22738;DHT22;11536;50.860;4.286;2023-04-25T13:33:15;12.60;99.90
22738;DHT22;11536;50.860;4.286;2023-04-25T13:35:41;12.80;99.90
22738;DHT22;11536;50.860;4.286;2023-04-25T13:38:07;13.00;99.90
22738;DHT22;11536;50.860;4.286;2023-04-25T13:40:34;13.30;99.90
22738;DHT22;11536;50.860;4.286;2023-04-25T13:43:01;13.40;99.90
22738;DHT22;11536;50.860;4.286;2023-04-25T13:45:27;13.50;99.90
22738;DHT22;11536;50.860;4.286;2023-04-25T13:47:53;13.60;99.90
22738;DHT22;11536;50.860;4.286;2023-04-25T13:50:18;13.50;99.90
22738;DHT22;11536;50.860;4.286;2023-04-25T13:52:44;13.40;99.90
22738;DHT22;11536;50.860;4.286;2023-04-25T13:55:10;13.40;99.90
22738;DHT22;11536;50.860;4.286;2023-04-25T13:57:36;13.40;99.90
22738;DHT22;11536;50.860;4.286;2023-04-25T14:00:03;13.30;99.90
22738;DHT22;11536;50.860;4.286;2023-04-25T14:02:37;13.10;99.90
22738;DHT22;11536;50.860;4.286;2023-04-25T14:05:06;13.00;99.90
22738;DHT22;11536;50.860;4.286;2023-04-25T14:07:36;13.00;99.90
22738;DHT22;11536;50.860;4.286;2023-04-25T14:10:03;13.00;99.90
22738;DHT22;11536;50.860;4.286;2023-04-25T14:12:30;12.90;99.90
22738;DHT22;11536;50.860;4.286;2023-04-25T14:14:55;12.80;99.90
22738;DHT22;11536;50.860;4.286;2023-04-25T14:17:21;12.80;99.90
22738;DHT22;11536;50.860;4.286;2023-04-25T14:19:47;12.70;99.90
22738;DHT22;11536;50.860;4.286;2023-04-25T14:22:14;12.70;99.90
22738;DHT22;11536;50.860;4.286;2023-04-25T14:24:41;12.60;99.90
22738;DHT22;11536;50.860;4.286;2023-04-25T14:27:07;12.70;99.90
22738;DHT22;11536;50.860;4.286;2023-04-25T14:29:32;12.70;99.90
22738;DHT22;11536;50.860;4.286;2023-04-25T14:31:58;12.70;99.90
22738;DHT22;11536;50.860;4.286;2023-04-25T14:34:24;12.80;99.90
22738;DHT22;11536;50.860;4.286;2023-04-25T14:36:51;12.70;99.90
22738;DHT22;11536;50.860;4.286;2023-04-25T14:39:17;12.80;99.90
22738;DHT22;11536;50.860;4.286;2023-04-25T14:41:43;12.90;99.90
22738;DHT22;11536;50.860;4.286;2023-04-25T14:44:10;12.90;99.90
22738;DHT22;11536;50.860;4.286;2023-04-25T14:46:36;12.80;99.90
22738;DHT22;11536;50.860;4.286;2023-04-25T14:49:02;12.60;99.90
22738;DHT22;11536;50.860;4.286;2023-04-25T14:51:28;12.50;99.90
22738;DHT22;11536;50.860;4.286;2023-04-25T14:53:55;12.40;99.90
22738;DHT22;11536;50.860;4.286;2023-04-25T14:56:21;12.30;99.90
22738;DHT22;11536;50.860;4.286;2023-04-25T14:58:46;12.30;99.90
22738;DHT22;11536;50.860;4.286;2023-04-25T15:01:12;12.30;99.90
22738;DHT22;11536;50.860;4.286;2023-04-25T15:03:42;12.30;99.90
22738;DHT22;11536;50.860;4.286;2023-04-25T15:06:08;12.40;99.90
22738;DHT22;11536;50.860;4.286;2023-04-25T15:08:34;12.40;99.90
22738;DHT22;11536;50.860;4.286;2023-04-25T15:11:00;12.40;99.90
22738;DHT22;11536;50.860;4.286;2023-04-25T15:13:26;12.50;99.90
22738;DHT22;11536;50.860;4.286;2023-04-25T15:15:52;12.50;99.90
22738;DHT22;11536;50.860;4.286;2023-04-25T15:18:20;12.50;99.90
22738;DHT22;11536;50.860;4.286;2023-04-25T15:20:51;12.50;99.90
22738;DHT22;11536;50.860;4.286;2023-04-25T15:23:17;12.50;99.90
22738;DHT22;11536;50.860;4.286;2023-04-25T15:25:43;12.50;99.90
22738;DHT22;11536;50.860;4.286;2023-04-25T15:28:09;12.50;99.90
22738;DHT22;11536;50.860;4.286;2023-04-25T15:30:35;12.40;99.90
22738;DHT22;11536;50.860;4.286;2023-04-25T15:33:01;12.30;99.90
22738;DHT22;11536;50.860;4.286;2023-04-25T15:35:26;12.20;99.90
22738;DHT22;11536;50.860;4.286;2023-04-25T15:37:52;12.00;99.90
22738;DHT22;11536;50.860;4.286;2023-04-25T15:40:19;12.00;99.90
22738;DHT22;11536;50.860;4.286;2023-04-25T15:42:46;11.90;99.90
22738;DHT22;11536;50.860;4.286;2023-04-25T15:45:13;11.90;99.90